Time;durP1;ratioP1;P1;durP2;ratioP2;P2;SDS_P1;SDS_P2;PMS_P1;PMS_P2;Temp;Humidity;BMP_temperature;BMP_pressure;BME280_temperature;BME280_humidity;BME280_pressure;Samples;Min_cycle;Max_cycle;Signal;HPM_P1;HPM_P2
2021/11/14 00:03:46;;;;;;;20.58;12.30;;;;;;;5.48;85.14;100629.13;8594792;33;22154;-73
2021/11/14 00:08:50;;;;;;;20.90;12.45;;;;;;;5.49;85.40;100625.53;8598125;33;20409;-74
2021/11/14 00:13:57;;;;;;;24.25;12.88;;;;;;;5.52;85.41;100633.34;8624835;33;20179;-74
2021/11/14 00:19:01;;;;;;;27.15;14.30;;;;;;;5.56;85.39;100644.69;8601601;33;20466;-73
2021/11/14 00:24:04;;;;;;;20.35;13.02;;;;;;;5.59;85.30;100644.50;8629554;33;20204;-74
2021/11/14 00:29:10;;;;;;;23.48;12.35;;;;;;;5.58;85.54;100635.66;8596085;33;21377;-74
2021/11/14 00:34:13;;;;;;;22.55;12.20;;;;;;;5.60;85.49;100640.94;8595489;33;20435;-73
2021/11/14 00:39:17;;;;;;;22.38;12.48;;;;;;;5.57;85.37;100641.97;8619443;33;20459;-73
2021/11/14 00:44:22;;;;;;;22.38;12.65;;;;;;;5.53;85.32;100639.53;8590984;33;20928;-73
2021/11/14 00:49:25;;;;;;;21.92;12.82;;;;;;;5.55;85.50;100645.66;8606108;33;20602;-73
2021/11/14 00:54:29;;;;;;;21.13;11.98;;;;;;;5.58;85.72;100650.81;8586366;33;20446;-73
2021/11/14 00:59:34;;;;;;;20.00;13.25;;;;;;;5.61;85.71;100658.63;8610855;33;20453;-74
2021/11/14 01:04:37;;;;;;;21.38;13.25;;;;;;;5.63;85.59;100670.91;8604387;33;20599;-72
2021/11/14 01:09:40;;;;;;;19.90;12.68;;;;;;;5.66;85.54;100669.88;8601485;33;20143;-74
2021/11/14 01:14:45;;;;;;;20.55;12.40;;;;;;;5.68;85.38;100676.00;8603209;33;20500;-74
2021/11/14 01:19:48;;;;;;;21.00;12.32;;;;;;;5.66;85.30;100678.75;8602892;33;20463;-73
2021/11/14 01:24:52;;;;;;;20.55;13.07;;;;;;;5.62;85.45;100682.53;8579522;33;20531;-74
2021/11/14 01:29:57;;;;;;;18.42;11.98;;;;;;;5.62;85.76;100685.22;8617067;33;20162;-74
2021/11/14 01:35:00;;;;;;;19.80;11.68;;;;;;;5.60;85.41;100697.75;8616386;33;20135;-75
2021/11/14 01:40:05;;;;;;;20.50;11.98;;;;;;;5.56;85.61;100687.31;8616987;33;20137;-74
2021/11/14 01:45:11;;;;;;;19.40;11.18;;;;;;;5.57;85.54;100687.25;8602091;33;20173;-74
2021/11/14 01:50:18;;;;;;;24.50;11.13;;;;;;;5.47;84.78;100699.34;8602024;33;20430;-74
2021/11/14 01:55:25;;;;;;;18.88;11.70;;;;;;;5.40;84.93;100693.53;8600808;33;20143;-73
2021/11/14 02:00:36;;;;;;;18.98;11.02;;;;;;;5.33;85.53;100699.25;8600623;33;20468;-74
2021/11/14 02:05:40;;;;;;;18.00;11.35;;;;;;;5.32;85.39;100703.72;8600690;33;21588;-74
2021/11/14 02:10:45;;;;;;;18.98;12.15;;;;;;;5.32;85.29;100713.50;8575614;33;20462;-74
2021/11/14 02:15:50;;;;;;;21.85;13.05;;;;;;;5.33;85.06;100718.75;8598718;33;20526;-74
2021/11/14 02:20:56;;;;;;;19.23;11.68;;;;;;;5.34;85.23;100722.28;8599618;33;20511;-74
2021/11/14 02:25:59;;;;;;;18.55;10.10;;;;;;;5.23;85.16;100728.19;8600733;33;20155;-73
2021/11/14 02:31:02;;;;;;;26.15;13.70;;;;;;;5.09;85.07;100730.72;8601999;33;20606;-73
2021/11/14 02:36:10;;;;;;;20.10;10.88;;;;;;;4.97;85.16;100733.06;8599296;33;20465;-74
2021/11/14 02:41:15;;;;;;;22.50;13.25;;;;;;;4.85;85.00;100741.66;8605083;33;20435;-73
2021/11/14 02:46:18;;;;;;;20.45;12.65;;;;;;;4.75;85.06;100741.28;8604478;33;20188;-74
2021/11/14 02:51:28;;;;;;;20.15;12.80;;;;;;;4.65;85.03;100749.81;8595272;33;20553;-73
2021/11/14 02:56:32;;;;;;;19.00;11.55;;;;;;;4.59;85.16;100764.28;8596035;33;20183;-74
2021/11/14 03:01:40;;;;;;;22.02;13.23;;;;;;;4.51;85.02;100767.31;8598315;33;20617;-74
2021/11/14 03:06:46;;;;;;;19.42;12.40;;;;;;;4.42;85.07;100770.44;8577273;33;20201;-74
2021/11/14 03:11:51;;;;;;;22.13;11.60;;;;;;;4.33;84.94;100776.19;8581661;33;20440;-74
2021/11/14 03:16:54;;;;;;;24.05;12.38;;;;;;;4.31;85.30;100786.06;8601550;33;20771;-74
2021/11/14 03:21:59;;;;;;;22.60;12.15;;;;;;;4.24;85.05;100784.63;8598027;33;20401;-74
2021/11/14 03:27:02;;;;;;;23.45;12.98;;;;;;;4.11;84.96;100785.25;8597413;33;20232;-74
2021/11/14 03:32:06;;;;;;;23.98;12.63;;;;;;;4.05;85.11;100793.47;8606386;33;20635;-74
2021/11/14 03:37:18;;;;;;;24.85;13.20;;;;;;;4.08;85.22;100788.03;8592017;33;20236;-74
2021/11/14 03:42:21;;;;;;;23.60;12.80;;;;;;;4.13;85.35;100793.97;8619588;33;20430;-74
2021/11/14 03:47:24;;;;;;;25.02;14.10;;;;;;;4.24;85.55;100795.28;8619351;33;21053;-74
2021/11/14 03:52:29;;;;;;;23.40;13.35;;;;;;;4.25;85.41;100799.66;8594949;33;21352;-75
2021/11/14 03:57:32;;;;;;;28.02;13.80;;;;;;;4.29;85.57;100794.13;8622969;33;20155;-74
2021/11/14 04:02:35;;;;;;;23.20;13.02;;;;;;;4.36;85.74;100805.31;8624692;33;20183;-74
2021/11/14 04:07:40;;;;;;;24.38;13.10;;;;;;;4.44;85.71;100816.44;8623714;33;20940;-74
2021/11/14 04:12:44;;;;;;;24.98;12.82;;;;;;;4.50;85.89;100821.50;8609906;33;20398;-74
2021/11/14 04:17:55;;;;;;;25.02;13.82;;;;;;;4.65;85.63;100821.66;8583735;33;20484;-74
2021/11/14 04:23:00;;;;;;;25.25;14.00;;;;;;;4.74;85.83;100843.34;8608568;33;20187;-74
2021/11/14 04:28:06;;;;;;;26.02;14.73;;;;;;;4.83;85.84;100837.59;8604109;33;20135;-74
2021/11/14 04:33:10;;;;;;;24.33;13.90;;;;;;;4.85;85.29;100845.47;8605694;33;20431;-74
2021/11/14 04:38:15;;;;;;;23.65;13.38;;;;;;;4.88;85.86;100847.13;8580605;33;20408;-74
2021/11/14 04:43:19;;;;;;;26.45;14.38;;;;;;;4.97;85.79;100854.69;8601154;33;20428;-74
2021/11/14 04:48:25;;;;;;;26.75;13.57;;;;;;;5.04;85.84;100864.94;8579112;33;21024;-74
2021/11/14 04:53:29;;;;;;;21.67;12.68;;;;;;;5.06;85.83;100864.88;8602353;33;20191;-74
2021/11/14 04:58:32;;;;;;;24.58;13.20;;;;;;;5.09;85.92;100867.38;8601967;33;20414;-74
2021/11/14 05:03:35;;;;;;;24.05;13.20;;;;;;;5.13;85.37;100876.06;8602345;33;21177;-74
2021/11/14 05:08:40;;;;;;;24.75;13.65;;;;;;;5.12;85.61;100882.34;8603041;33;20421;-74
2021/11/14 05:13:43;;;;;;;24.08;13.23;;;;;;;5.16;85.63;100886.59;8602136;33;20196;-74
2021/11/14 05:18:46;;;;;;;27.27;14.30;;;;;;;5.25;85.63;100886.97;8603718;33;20589;-74
2021/11/14 05:23:51;;;;;;;28.45;15.25;;;;;;;5.31;85.60;100892.94;8577752;33;20435;-73
2021/11/14 05:28:54;;;;;;;24.20;14.30;;;;;;;5.38;85.69;100894.38;8601868;33;20143;-75
2021/11/14 05:33:57;;;;;;;26.00;14.63;;;;;;;5.39;85.62;100899.59;8580211;33;20153;-74
2021/11/14 05:39:02;;;;;;;21.55;13.48;;;;;;;5.44;85.60;100913.56;8613431;33;20143;-75
2021/11/14 05:44:05;;;;;;;25.38;15.25;;;;;;;5.48;85.54;100922.25;8604143;33;20168;-74
2021/11/14 05:49:09;;;;;;;26.40;15.35;;;;;;;5.53;85.49;100933.53;8587144;33;20178;-74
2021/11/14 05:54:13;;;;;;;24.70;13.27;;;;;;;5.52;85.34;100930.97;8589403;33;20587;-74
2021/11/14 05:59:24;;;;;;;23.65;12.02;;;;;;;5.46;85.50;100941.00;8602137;33;20923;-75
2021/11/14 06:04:32;;;;;;;24.20;13.23;;;;;;;5.46;85.58;100954.31;8574995;33;20404;-74
2021/11/14 06:09:37;;;;;;;18.15;11.65;;;;;;;5.49;85.54;100958.63;8602253;33;20514;-75
2021/11/14 06:14:40;;;;;;;24.98;13.02;;;;;;;5.51;85.48;100956.72;8598975;33;20143;-74
2021/11/14 06:19:43;;;;;;;22.02;13.15;;;;;;;5.56;85.74;100968.00;8599589;33;20413;-75
2021/11/14 06:24:48;;;;;;;23.17;12.48;;;;;;;5.56;85.43;100967.16;8599685;33;20398;-74
2021/11/14 06:29:51;;;;;;;22.73;13.32;;;;;;;5.55;85.25;100984.09;8601658;33;20745;-74
2021/11/14 06:34:54;;;;;;;22.50;12.70;;;;;;;5.54;85.35;100988.56;8601491;33;20186;-75
2021/11/14 06:39:58;;;;;;;22.95;12.30;;;;;;;5.55;85.27;100995.63;8601365;33;20612;-74
2021/11/14 06:45:02;;;;;;;20.00;11.67;;;;;;;5.56;85.29;101004.47;8600667;33;20436;-74
2021/11/14 06:50:07;;;;;;;21.52;12.90;;;;;;;5.59;85.20;101015.84;8601886;33;20139;-74
2021/11/14 06:55:14;;;;;;;23.90;13.45;;;;;;;5.58;85.21;101019.44;8577857;33;20455;-74
2021/11/14 07:00:21;;;;;;;20.35;11.82;;;;;;;5.48;84.35;101035.00;8603213;33;20421;-74
2021/11/14 07:05:24;;;;;;;20.40;11.10;;;;;;;5.54;85.04;101041.88;8599628;33;20628;-74
2021/11/14 07:10:28;;;;;;;23.08;12.25;;;;;;;5.62;85.06;101049.47;8597400;33;20147;-75
2021/11/14 07:15:31;;;;;;;16.92;9.48;;;;;;;5.69;84.53;101074.88;8571482;33;20496;-74
2021/11/14 07:20:35;;;;;;;23.05;11.77;;;;;;;5.75;84.62;101074.56;8595044;33;20450;-75
2021/11/14 07:25:39;;;;;;;20.88;11.10;;;;;;;5.92;84.82;101076.38;8596654;33;21449;-75
2021/11/14 07:30:42;;;;;;;20.77;10.73;;;;;;;6.14;84.60;101084.16;8576861;33;20527;-74
2021/11/14 07:35:49;;;;;;;16.70;9.88;;;;;;;6.28;84.32;101092.34;8605748;33;20459;-74
2021/11/14 07:40:54;;;;;;;20.50;12.27;;;;;;;6.34;84.05;101101.84;8607106;33;20989;-75
2021/11/14 07:45:57;;;;;;;19.80;11.90;;;;;;;6.31;84.38;101104.66;8605066;33;20431;-75
2021/11/14 07:51:01;;;;;;;17.60;11.43;;;;;;;6.35;84.22;101119.56;8606616;33;20867;-74
2021/11/14 07:56:06;;;;;;;19.48;12.85;;;;;;;6.42;84.24;101125.44;8605120;33;20264;-75
2021/11/14 08:01:10;;;;;;;20.30;13.57;;;;;;;6.45;84.41;101120.81;8581287;33;21514;-75
2021/11/14 08:06:13;;;;;;;22.63;14.05;;;;;;;6.49;84.35;101122.38;8606285;33;20738;-75
2021/11/14 08:11:18;;;;;;;23.48;13.68;;;;;;;6.56;84.22;101123.78;8606228;33;22270;-75
2021/11/14 08:16:21;;;;;;;26.50;14.80;;;;;;;6.66;84.37;101132.16;8605871;33;20417;-73
2021/11/14 08:21:24;;;;;;;24.88;14.55;;;;;;;6.73;84.55;101135.38;8605981;33;20422;-75
2021/11/14 08:26:29;;;;;;;26.77;15.95;;;;;;;6.82;84.31;101143.75;8576989;33;20979;-74
2021/11/14 08:31:32;;;;;;;27.33;16.40;;;;;;;6.88;84.15;101136.38;8598692;33;20696;-74
2021/11/14 08:36:35;;;;;;;30.77;17.90;;;;;;;7.01;84.35;101154.34;8594195;33;20430;-74
2021/11/14 08:41:40;;;;;;;26.52;17.85;;;;;;;7.13;83.83;101155.50;8595448;33;21030;-75
2021/11/14 08:46:43;;;;;;;27.13;17.50;;;;;;;7.20;83.81;101167.56;8595742;33;20492;-74
2021/11/14 08:51:46;;;;;;;33.40;18.55;;;;;;;7.27;83.76;101163.63;8576109;33;20350;-74
2021/11/14 08:56:51;;;;;;;27.08;17.77;;;;;;;7.38;83.81;101171.06;8576411;33;20995;-74
2021/11/14 09:01:54;;;;;;;29.42;17.20;;;;;;;7.52;83.97;101172.13;8572399;33;20196;-76
2021/11/14 09:06:59;;;;;;;27.67;16.98;;;;;;;7.73;83.73;101176.22;8567666;33;20424;-76
2021/11/14 09:12:05;;;;;;;34.78;18.92;;;;;;;7.87;83.21;101181.69;8592677;33;21339;-76
2021/11/14 09:17:08;;;;;;;30.33;18.08;;;;;;;7.99;82.88;101190.81;8570893;33;20225;-76
2021/11/14 09:22:11;;;;;;;28.23;16.33;;;;;;;8.14;82.81;101192.56;8597183;33;20183;-75
2021/11/14 09:27:16;;;;;;;29.48;16.67;;;;;;;8.34;81.99;101190.56;8596889;33;20406;-76
2021/11/14 09:32:19;;;;;;;32.05;17.75;;;;;;;8.50;81.49;101193.22;8592699;33;20144;-76
2021/11/14 09:37:22;;;;;;;29.67;18.00;;;;;;;8.77;81.08;101190.69;8595462;33;20151;-74
2021/11/14 09:42:29;;;;;;;29.85;18.05;;;;;;;9.01;80.88;101202.59;8596548;33;20605;-76
2021/11/14 09:47:33;;;;;;;31.58;18.95;;;;;;;9.34;80.43;101211.34;8592430;33;20419;-76
2021/11/14 09:52:38;;;;;;;30.88;17.27;;;;;;;9.61;79.36;101214.94;8600987;33;20416;-75
2021/11/14 09:57:44;;;;;;;30.27;17.50;;;;;;;9.88;77.97;101206.97;8574799;33;20183;-76
2021/11/14 10:02:48;;;;;;;28.50;16.98;;;;;;;10.25;77.48;101207.22;8592867;33;20271;-76
2021/11/14 10:07:56;;;;;;;35.67;18.85;;;;;;;10.38;74.92;101213.50;8602820;33;21379;-73
2021/11/14 10:13:13;;;;;;;32.72;19.35;;;;;;;10.61;74.21;101224.50;8607795;33;20401;-74
2021/11/14 10:18:20;;;;;;;33.47;19.40;;;;;;;10.91;71.61;101224.22;8598721;33;20336;-74
2021/11/14 10:23:23;;;;;;;33.03;18.52;;;;;;;10.87;70.20;101230.81;8601719;33;20565;-74
2021/11/14 10:28:29;;;;;;;34.50;18.98;;;;;;;10.58;70.48;101236.31;8603732;33;22483;-74
2021/11/14 10:33:32;;;;;;;29.55;16.88;;;;;;;10.42;70.67;101232.09;8578328;33;20932;-74
2021/11/14 10:38:38;;;;;;;38.53;18.27;;;;;;;10.43;70.52;101240.06;8603295;33;20440;-74
2021/11/14 10:43:44;;;;;;;46.38;23.50;;;;;;;10.22;70.26;101238.78;8602816;33;20254;-74
2021/11/14 10:48:48;;;;;;;32.65;16.50;;;;;;;10.00;71.23;101234.81;8541036;33;20483;-73
2021/11/14 10:53:51;;;;;;;31.10;17.30;;;;;;;9.84;71.34;101236.75;8526793;33;20406;-73
2021/11/14 10:58:56;;;;;;;35.70;19.38;;;;;;;10.19;70.78;101237.16;8571779;33;20502;-73
2021/11/14 11:03:59;;;;;;;34.05;18.77;;;;;;;10.13;69.89;101240.25;8576923;33;21183;-72
2021/11/14 11:09:06;;;;;;;28.30;15.50;;;;;;;10.11;69.83;101234.97;8578491;33;21075;-73
2021/11/14 11:14:11;;;;;;;30.30;15.00;;;;;;;9.96;69.24;101238.69;8605179;33;20156;-74
2021/11/14 11:19:15;;;;;;;29.17;15.23;;;;;;;9.98;69.42;101239.44;8605775;33;20670;-73
2021/11/14 11:24:25;;;;;;;29.88;14.43;;;;;;;10.05;69.00;101242.59;8604963;33;20143;-73
2021/11/14 11:29:33;;;;;;;28.58;16.48;;;;;;;9.98;69.74;101244.78;8599914;33;20221;-73
2021/11/14 11:34:38;;;;;;;32.97;16.95;;;;;;;10.07;70.50;101244.22;8534623;33;21289;-73
2021/11/14 11:39:42;;;;;;;30.73;15.85;;;;;;;10.35;70.02;101245.09;8544709;33;20459;-73
2021/11/14 11:44:47;;;;;;;28.15;14.63;;;;;;;10.22;69.17;101247.69;8560207;33;20445;-73
2021/11/14 11:49:53;;;;;;;26.40;15.68;;;;;;;10.15;69.22;101254.47;8568500;33;20415;-73
2021/11/14 11:54:57;;;;;;;27.38;15.10;;;;;;;10.02;69.75;101258.91;8603501;33;20902;-76
2021/11/14 12:00:06;;;;;;;29.17;15.05;;;;;;;9.91;69.65;101264.97;8605994;33;20692;-74
2021/11/14 12:05:20;;;;;;;43.92;21.77;;;;;;;9.79;69.70;101277.31;8530515;33;20447;-75
2021/11/14 12:10:27;;;;;;;26.90;15.38;;;;;;;9.68;70.26;101280.69;8604825;33;20277;-74
2021/11/14 12:15:34;;;;;;;31.85;16.73;;;;;;;9.60;70.79;101285.66;8601826;33;20469;-75
2021/11/14 12:20:42;;;;;;;26.77;14.65;;;;;;;9.43;70.88;101291.19;8606146;33;20496;-74
2021/11/14 12:25:48;;;;;;;35.30;19.23;;;;;;;9.41;71.24;101293.13;8580525;33;20155;-74
2021/11/14 12:31:06;;;;;;;28.88;15.88;;;;;;;9.40;71.48;101292.25;8577973;33;20459;-75
2021/11/14 12:36:20;;;;;;;27.80;15.18;;;;;;;9.52;71.40;101290.66;8603061;33;21036;-74
2021/11/14 12:41:31;;;;;;;26.02;14.98;;;;;;;9.32;71.12;101302.59;8606596;33;20587;-74
2021/11/14 12:46:36;;;;;;;27.08;14.77;;;;;;;9.37;71.20;101308.53;8577507;33;22042;-75
2021/11/14 12:51:40;;;;;;;24.15;12.90;;;;;;;9.39;70.82;101308.44;8563613;33;20461;-74
2021/11/14 12:56:46;;;;;;;22.35;13.48;;;;;;;9.42;71.12;101309.09;8591214;33;20630;-73
2021/11/14 13:01:56;;;;;;;28.83;16.23;;;;;;;9.39;70.70;101314.66;8593037;33;20449;-73
2021/11/14 13:07:03;;;;;;;29.77;16.48;;;;;;;9.43;70.74;101312.66;8597182;33;20150;-73
2021/11/14 13:12:09;;;;;;;28.02;15.57;;;;;;;9.42;70.49;101309.09;8599468;33;20505;-74
2021/11/14 13:17:17;;;;;;;23.17;12.95;;;;;;;9.38;70.43;101310.28;8597993;33;21116;-75
2021/11/14 13:22:21;;;;;;;31.02;15.13;;;;;;;9.40;70.54;101316.38;8593330;33;20177;-74
2021/11/14 13:27:26;;;;;;;24.73;13.88;;;;;;;9.38;70.66;101310.28;8593942;33;20246;-74
2021/11/14 13:32:32;;;;;;;23.25;13.52;;;;;;;9.39;70.41;101321.84;8593441;33;20418;-73
2021/11/14 13:37:37;;;;;;;24.92;13.70;;;;;;;9.23;70.12;101316.56;8570919;33;20226;-73
2021/11/14 13:42:43;;;;;;;21.73;12.25;;;;;;;9.18;70.62;101321.34;8589001;33;20583;-73
2021/11/14 13:47:51;;;;;;;24.38;12.63;;;;;;;9.15;70.87;101337.59;8570023;33;20150;-74
2021/11/14 13:53:06;;;;;;;20.65;13.40;;;;;;;9.18;71.06;101334.72;8579703;33;20415;-74
2021/11/14 13:58:11;;;;;;;25.52;14.25;;;;;;;9.06;70.52;101323.78;8576367;33;20432;-75
2021/11/14 14:03:22;;;;;;;27.20;13.68;;;;;;;9.01;71.03;101328.56;8588108;33;21487;-74
2021/11/14 14:08:27;;;;;;;25.52;14.18;;;;;;;9.00;70.74;101328.69;8604215;33;20480;-73
2021/11/14 14:13:30;;;;;;;25.98;14.35;;;;;;;8.91;70.92;101330.06;8604794;33;20422;-74
2021/11/14 14:18:40;;;;;;;27.38;15.27;;;;;;;8.84;71.29;101348.31;8601114;33;20433;-74
2021/11/14 14:23:44;;;;;;;27.60;15.65;;;;;;;8.83;71.63;101338.56;8597842;33;20433;-73
2021/11/14 14:28:48;;;;;;;25.88;13.63;;;;;;;8.71;71.62;101346.44;8573538;33;20468;-74
2021/11/14 14:33:57;;;;;;;29.63;14.85;;;;;;;8.66;72.04;101356.56;8596252;33;20472;-74
2021/11/14 14:39:07;;;;;;;29.00;15.35;;;;;;;8.55;72.04;101370.56;8569771;33;20401;-74
2021/11/14 14:44:10;;;;;;;27.05;15.43;;;;;;;8.50;72.62;101376.22;8594568;33;20225;-73
2021/11/14 14:49:17;;;;;;;28.48;16.25;;;;;;;8.35;73.09;101382.38;8570133;33;20451;-74
2021/11/14 14:54:22;;;;;;;32.28;15.68;;;;;;;8.30;73.41;101387.13;8593927;33;20144;-74
2021/11/14 14:59:29;;;;;;;28.25;15.60;;;;;;;8.30;73.70;101393.34;8594354;33;20505;-73
2021/11/14 15:04:39;;;;;;;33.80;16.67;;;;;;;8.29;73.72;101398.78;8596329;33;20333;-74
2021/11/14 15:09:47;;;;;;;29.73;16.02;;;;;;;8.26;73.42;101404.31;8595258;33;22157;-73
2021/11/14 15:14:52;;;;;;;31.75;15.52;;;;;;;8.20;73.86;101404.63;8593139;33;20875;-74
2021/11/14 15:20:00;;;;;;;29.02;16.58;;;;;;;8.16;73.97;101414.66;8588898;33;20394;-74
2021/11/14 15:25:08;;;;;;;33.33;16.90;;;;;;;8.09;74.48;101415.91;8591143;33;20472;-75
2021/11/14 15:30:17;;;;;;;27.80;15.07;;;;;;;8.03;74.19;101427.81;8594962;33;21195;-73
2021/11/14 15:35:23;;;;;;;30.17;14.95;;;;;;;8.02;75.07;101434.13;8608858;33;20147;-73
2021/11/14 15:40:27;;;;;;;31.42;16.20;;;;;;;8.02;74.98;101430.59;8614631;33;20647;-74
2021/11/14 15:45:33;;;;;;;30.42;16.65;;;;;;;8.02;74.82;101449.31;8613727;33;21176;-74
2021/11/14 15:50:40;;;;;;;32.65;17.02;;;;;;;7.90;74.54;101440.16;8607539;33;20131;-73
2021/11/14 15:55:45;;;;;;;27.17;14.18;;;;;;;7.84;74.06;101446.66;8604141;33;20128;-74
2021/11/14 16:00:52;;;;;;;22.42;12.13;;;;;;;7.82;73.69;101458.41;8600643;33;20147;-73
2021/11/14 16:05:58;;;;;;;21.58;11.18;;;;;;;7.84;73.51;101459.19;8598841;33;20427;-73
2021/11/14 16:11:01;;;;;;;23.58;12.95;;;;;;;7.80;73.53;101468.31;8598044;33;21458;-75
2021/11/14 16:16:04;;;;;;;21.58;12.25;;;;;;;7.79;73.47;101458.56;8598520;33;20760;-73
2021/11/14 16:21:12;;;;;;;25.95;14.40;;;;;;;7.82;73.15;101471.78;8596078;33;20146;-73
2021/11/14 16:26:15;;;;;;;20.27;12.25;;;;;;;7.72;72.98;101477.59;8594973;33;20425;-75
2021/11/14 16:31:19;;;;;;;19.47;12.53;;;;;;;7.71;72.71;101478.56;8600396;33;20460;-73
2021/11/14 16:36:23;;;;;;;21.10;12.20;;;;;;;7.68;72.68;101481.41;8591588;33;20212;-74
2021/11/14 16:41:29;;;;;;;16.60;10.30;;;;;;;7.70;72.59;101494.66;8566714;33;20473;-73
2021/11/14 16:46:32;;;;;;;17.95;10.75;;;;;;;7.64;72.58;101490.50;8548118;33;20417;-73
2021/11/14 16:51:36;;;;;;;19.25;11.15;;;;;;;7.62;72.47;101497.72;8600006;33;20531;-73
2021/11/14 16:56:40;;;;;;;18.70;10.88;;;;;;;7.59;72.59;101503.25;8602733;33;20455;-73
2021/11/14 17:01:43;;;;;;;20.42;12.40;;;;;;;7.62;72.37;101507.56;8463684;33;20148;-74
2021/11/14 17:06:48;;;;;;;19.00;11.35;;;;;;;7.64;72.28;101508.38;8484798;33;20494;-75
2021/11/14 17:11:51;;;;;;;20.90;10.90;;;;;;;7.63;72.13;101512.00;8454149;33;20161;-74
2021/11/14 17:16:54;;;;;;;14.40;8.85;;;;;;;7.58;71.91;101514.91;8521916;33;20172;-73
2021/11/14 17:21:59;;;;;;;20.35;9.73;;;;;;;7.52;71.72;101514.34;8532589;33;20482;-74
2021/11/14 17:27:02;;;;;;;19.02;10.63;;;;;;;7.48;71.57;101519.81;8532653;33;20155;-73
2021/11/14 17:32:06;;;;;;;20.83;10.82;;;;;;;7.48;71.96;101518.97;8506351;33;20574;-74
2021/11/14 17:37:11;;;;;;;22.88;11.32;;;;;;;7.40;72.15;101522.00;8535966;33;20835;-73
2021/11/14 17:42:15;;;;;;;23.40;11.88;;;;;;;7.50;71.89;101522.44;8536430;33;20458;-74
2021/11/14 17:47:18;;;;;;;21.42;11.73;;;;;;;7.48;72.06;101521.63;8532685;33;20172;-74
2021/11/14 17:52:22;;;;;;;21.83;12.23;;;;;;;7.44;71.72;101526.28;8533473;33;20175;-73
2021/11/14 17:57:25;;;;;;;21.15;11.85;;;;;;;7.48;71.72;101540.34;8535798;33;20404;-73
2021/11/14 18:02:28;;;;;;;24.52;12.43;;;;;;;7.45;71.89;101529.81;8513103;33;20428;-73
2021/11/14 18:07:33;;;;;;;29.02;14.90;;;;;;;7.32;71.65;101536.69;8541303;33;20144;-74
2021/11/14 18:12:37;;;;;;;32.08;16.40;;;;;;;7.31;72.13;101543.88;8539273;33;20471;-74
2021/11/14 18:17:40;;;;;;;21.42;11.32;;;;;;;7.35;71.86;101537.44;8540405;33;20409;-73
2021/11/14 18:22:45;;;;;;;17.80;9.90;;;;;;;7.27;71.77;101539.63;8543631;33;20184;-73
2021/11/14 18:27:48;;;;;;;15.05;9.20;;;;;;;7.33;71.48;101555.34;8552532;33;20148;-72
2021/11/14 18:32:52;;;;;;;17.10;9.20;;;;;;;7.31;71.46;101553.69;8539968;33;20502;-73
2021/11/14 18:37:58;;;;;;;19.58;10.60;;;;;;;7.18;71.30;101558.75;8538414;33;20504;-73
2021/11/14 18:43:02;;;;;;;18.88;10.15;;;;;;;7.22;71.45;101569.25;8534183;33;20290;-74
2021/11/14 18:48:06;;;;;;;19.00;9.90;;;;;;;7.24;71.69;101571.81;8535390;33;20482;-74
2021/11/14 18:53:11;;;;;;;19.50;9.95;;;;;;;7.28;71.57;101578.75;8527997;33;20148;-73
2021/11/14 18:58:14;;;;;;;22.52;12.35;;;;;;;7.27;71.46;101591.28;8548880;33;20164;-73
2021/11/14 19:03:22;;;;;;;16.33;10.27;;;;;;;7.04;71.70;101583.47;8558519;33;20600;-73
2021/11/14 19:08:28;;;;;;;22.27;11.23;;;;;;;7.23;71.40;101588.81;8543980;33;20416;-73
2021/11/14 19:13:31;;;;;;;25.02;13.57;;;;;;;7.13;71.50;101593.75;8541590;33;20151;-72
2021/11/14 19:18:34;;;;;;;25.52;13.30;;;;;;;7.07;71.69;101588.66;8540641;33;20472;-73
2021/11/14 19:23:39;;;;;;;22.33;11.32;;;;;;;7.09;71.82;101591.28;8584183;33;20189;-73
2021/11/14 19:28:44;;;;;;;23.05;13.00;;;;;;;6.95;72.08;101595.47;8625845;33;20402;-73
2021/11/14 19:33:48;;;;;;;26.23;11.52;;;;;;;7.09;71.99;101588.59;8597937;33;20183;-73
2021/11/14 19:38:53;;;;;;;21.98;12.75;;;;;;;7.10;71.90;101591.19;8617729;33;20500;-73
2021/11/14 19:44:00;;;;;;;22.98;12.68;;;;;;;7.05;72.07;101599.44;8607008;33;20406;-73
2021/11/14 19:49:04;;;;;;;21.42;12.23;;;;;;;7.15;71.44;101604.34;8606469;33;20406;-73
2021/11/14 19:54:09;;;;;;;24.85;14.05;;;;;;;7.04;71.60;101605.72;8606808;33;20251;-75
2021/11/14 19:59:34;;;;;;;29.08;15.00;;;;;;;7.05;71.99;101607.47;8616094;33;20415;-73
2021/11/14 20:04:38;;;;;;;34.53;19.00;;;;;;;7.10;72.15;101609.03;8622190;33;20178;-74
2021/11/14 20:09:44;;;;;;;30.65;16.77;;;;;;;7.08;72.45;101611.78;8629883;33;20577;-73
2021/11/14 20:14:48;;;;;;;28.77;15.75;;;;;;;7.10;72.02;101617.03;8665766;33;20432;-73
2021/11/14 20:19:51;;;;;;;28.50;14.52;;;;;;;7.13;72.13;101615.13;8683363;33;20426;-72
2021/11/14 20:24:57;;;;;;;29.98;15.45;;;;;;;7.14;72.17;101616.84;8685675;33;20462;-73
2021/11/14 20:30:01;;;;;;;26.53;13.93;;;;;;;7.15;72.03;101607.88;8685125;33;20471;-73
2021/11/14 20:35:05;;;;;;;30.08;15.77;;;;;;;7.17;72.30;101613.16;8683883;33;20182;-75
2021/11/14 20:40:14;;;;;;;31.85;15.98;;;;;;;7.16;72.49;101614.97;8668449;33;20407;-73
2021/11/14 20:45:21;;;;;;;28.65;15.73;;;;;;;7.17;72.53;101607.81;8682933;33;20405;-73
2021/11/14 20:50:24;;;;;;;32.85;18.08;;;;;;;7.12;72.79;101617.84;8682220;33;20433;-73
2021/11/14 20:55:28;;;;;;;27.88;14.80;;;;;;;7.11;72.90;101614.31;8677619;33;20589;-72
2021/11/14 21:00:33;;;;;;;35.17;18.10;;;;;;;7.03;72.85;101632.50;8678699;33;20175;-72
2021/11/14 21:05:36;;;;;;;31.05;19.23;;;;;;;7.04;72.98;101631.56;8678498;33;20203;-73
2021/11/14 21:10:41;;;;;;;35.60;18.90;;;;;;;7.00;73.26;101627.31;8678745;33;20186;-75
2021/11/14 21:15:44;;;;;;;38.35;19.33;;;;;;;6.92;73.23;101633.00;8671456;33;20143;-73
2021/11/14 21:21:06;;;;;;;38.05;18.45;;;;;;;6.92;73.33;101629.47;8664205;33;20435;-73
2021/11/14 21:26:10;;;;;;;42.65;19.15;;;;;;;6.96;73.28;101629.25;8637228;33;20184;-73
2021/11/14 21:31:13;;;;;;;41.67;19.65;;;;;;;6.98;73.31;101637.19;8663638;33;21890;-74
2021/11/14 21:41:39;;;;;;;42.22;20.30;;;;;;;6.97;73.32;101632.81;8662711;33;20497;-73
2021/11/14 21:46:43;;;;;;;36.33;18.20;;;;;;;6.91;73.57;101630.38;8664527;33;20518;-74
2021/11/14 21:51:46;;;;;;;32.85;17.15;;;;;;;6.89;73.71;101633.16;8663850;33;20411;-74
2021/11/14 21:56:51;;;;;;;31.77;16.08;;;;;;;6.84;73.57;101619.09;8670197;33;20468;-72
2021/11/14 22:01:55;;;;;;;34.58;17.33;;;;;;;6.84;73.65;101621.78;8675141;33;20447;-73
2021/11/14 22:06:59;;;;;;;32.38;18.20;;;;;;;6.81;73.76;101630.78;8673299;33;21598;-73
2021/11/14 22:12:04;;;;;;;33.75;17.58;;;;;;;6.82;73.88;101626.31;8669806;33;20252;-73
2021/11/14 22:17:07;;;;;;;37.45;19.63;;;;;;;6.82;73.29;101631.66;8660864;33;20411;-73
2021/11/14 22:22:10;;;;;;;34.40;17.42;;;;;;;6.81;73.55;101629.94;8618660;33;21132;-73
2021/11/14 22:27:16;;;;;;;30.23;16.30;;;;;;;6.85;73.71;101627.03;8646619;33;20496;-75
2021/11/14 22:32:19;;;;;;;35.72;18.38;;;;;;;6.81;73.94;101625.44;8628867;33;20187;-72
2021/11/14 22:37:22;;;;;;;37.67;17.77;;;;;;;6.83;74.22;101622.72;8654899;33;20138;-74
2021/11/14 22:42:26;;;;;;;37.20;18.58;;;;;;;6.78;74.11;101625.59;8654530;33;20191;-73
2021/11/14 22:47:29;;;;;;;33.95;17.83;;;;;;;6.81;74.10;101625.44;8630017;33;20411;-73
2021/11/14 22:52:32;;;;;;;33.63;17.23;;;;;;;6.82;73.50;101626.31;8658914;33;20410;-73
2021/11/14 22:57:37;;;;;;;32.53;17.02;;;;;;;6.79;73.83;101615.78;8673309;33;20498;-73
2021/11/14 23:02:40;;;;;;;28.42;16.63;;;;;;;6.75;73.94;101635.56;8679279;33;21826;-73
2021/11/14 23:07:43;;;;;;;30.48;16.90;;;;;;;6.71;74.00;101639.28;8675976;33;20165;-73
2021/11/14 23:12:48;;;;;;;35.70;19.17;;;;;;;6.58;74.56;101625.59;8671535;33;20701;-73
2021/11/14 23:17:51;;;;;;;33.45;16.92;;;;;;;6.46;74.62;101640.38;8669927;33;21573;-73
2021/11/14 23:22:54;;;;;;;37.45;18.60;;;;;;;6.60;74.38;101640.63;8639065;33;20170;-74
2021/11/14 23:27:59;;;;;;;34.95;17.58;;;;;;;6.65;74.34;101626.22;8663703;33;20943;-74